createdAt,value
2022-10-01T00:01:03.046Z,99869.70
2022-10-01T00:06:17.139Z,99865.04
2022-10-01T00:11:22.057Z,99863.66
2022-10-01T00:16:27.441Z,99856.02
2022-10-01T00:21:31.831Z,99852.27
2022-10-01T00:26:35.695Z,99845.14
2022-10-01T00:31:38.968Z,99849.88
2022-10-01T00:36:42.256Z,99846.69
2022-10-01T00:41:44.754Z,99842.56
2022-10-01T00:46:47.268Z,99839.04
2022-10-01T00:51:52.345Z,99834.63
2022-10-01T00:56:57.401Z,99842.34
2022-10-01T01:01:59.836Z,99841.92
2022-10-01T01:07:04.333Z,99834.09
2022-10-01T01:12:09.654Z,99829.11
2022-10-01T01:17:19.523Z,99829.34
2022-10-01T01:22:24.957Z,99829.46
2022-10-01T01:27:31.265Z,99826.33
2022-10-01T01:32:34.615Z,99820.27
2022-10-01T01:37:40.109Z,99823.41
2022-10-01T01:42:44.047Z,99828.65
2022-10-01T01:47:46.917Z,99827.52
2022-10-01T01:52:49.312Z,99829.13
2022-10-01T01:57:53.119Z,99828.20
2022-10-01T02:02:57.086Z,99830.45
2022-10-01T02:08:02.455Z,99828.52
2022-10-01T02:13:08.190Z,99822.81
2022-10-01T02:18:13.722Z,99828.65
2022-10-01T02:23:23.746Z,99823.39
2022-10-01T02:28:26.343Z,99819.48
2022-10-01T02:33:30.810Z,99817.05
2022-10-01T02:38:35.505Z,99812.23
2022-10-01T02:43:43.104Z,99814.11
2022-10-01T02:48:46.071Z,99819.73
2022-10-01T02:53:52.719Z,99820.41
2022-10-01T02:58:55.167Z,99823.98
2022-10-01T03:03:57.559Z,99817.52
2022-10-01T03:08:59.986Z,99817.71
2022-10-01T03:14:04.173Z,99805.33
2022-10-01T03:19:06.618Z,99804.87
2022-10-01T03:24:09.199Z,99800.64
2022-10-01T03:29:13.185Z,99795.36
2022-10-01T03:34:15.602Z,99795.81
2022-10-01T03:39:18.213Z,99795.79
2022-10-01T03:44:20.643Z,99794.67
2022-10-01T03:49:23.248Z,99790.73
2022-10-01T03:54:26.305Z,99784.27
2022-10-01T03:59:29.519Z,99780.35
2022-10-01T04:04:32.089Z,99771.96
2022-10-01T04:09:34.567Z,99765.73
2022-10-01T04:14:36.992Z,99768.48
2022-10-01T04:19:39.398Z,99765.02
2022-10-01T04:24:41.900Z,99769.73
2022-10-01T04:29:44.502Z,99761.02
2022-10-01T04:34:49.838Z,99753.08
2022-10-01T04:39:52.300Z,99747.59
2022-10-01T04:44:54.720Z,99749.21
2022-10-01T04:49:57.373Z,99743.31
2022-10-01T04:54:59.764Z,99740.36
2022-10-01T05:00:04.404Z,99741.41
2022-10-01T05:05:07.511Z,99744.17
2022-10-01T05:10:13.405Z,99744.62
2022-10-01T05:15:16.776Z,99746.52
2022-10-01T05:20:20.713Z,99747.39
2022-10-01T05:25:23.454Z,99753.48
2022-10-01T05:30:25.882Z,99756.04
2022-10-01T05:35:28.799Z,99755.13
2022-10-01T05:40:31.341Z,99759.66
2022-10-01T05:45:33.895Z,99760.80
2022-10-01T05:50:40.162Z,99768.05
2022-10-01T05:55:42.953Z,99771.00
2022-10-01T06:00:45.615Z,99772.66
2022-10-01T06:12:27.103Z,99757.31
2022-10-01T06:17:29.533Z,99749.90
2022-10-01T06:22:31.951Z,99756.31
2022-10-01T06:27:34.362Z,99758.67
2022-10-01T06:32:36.760Z,99757.42
2022-10-01T06:37:39.277Z,99763.51
2022-10-01T06:42:46.956Z,99757.81
2022-10-01T06:47:52.315Z,99758.25
2022-10-01T06:52:54.826Z,99759.39
2022-10-01T06:57:58.996Z,99752.24
2022-10-01T07:03:02.046Z,99754.55
2022-10-01T07:08:04.705Z,99752.35
2022-10-01T07:13:08.531Z,99750.73
2022-10-01T07:18:11.366Z,99749.27
2022-10-01T07:23:14.668Z,99743.90
2022-10-01T07:28:18.974Z,99737.29
2022-10-01T07:33:21.478Z,99737.56
2022-10-01T07:38:24.077Z,99733.38
2022-10-01T07:43:26.562Z,99728.39
2022-10-01T07:48:28.961Z,99719.61
2022-10-01T07:53:31.693Z,99713.13
2022-10-01T07:58:34.248Z,99711.63
2022-10-01T08:03:36.637Z,99704.78
2022-10-01T08:08:39.059Z,99710.58
2022-10-01T08:13:41.467Z,99706.34
2022-10-01T08:18:43.890Z,99703.36
2022-10-01T08:23:46.394Z,99699.92
2022-10-01T08:28:48.795Z,99690.95
2022-10-01T08:33:51.440Z,99684.99
2022-10-01T08:38:54.128Z,99682.52
2022-10-01T08:43:58.980Z,99681.71
2022-10-01T08:49:15.962Z,99673.21
2022-10-01T08:54:21.625Z,99671.94
2022-10-01T08:59:27.530Z,99666.98
2022-10-01T09:04:30.167Z,99660.75
2022-10-01T09:09:34.588Z,99655.65
2022-10-01T09:14:39.951Z,99649.29
2022-10-01T09:19:47.188Z,99638.34
2022-10-01T09:24:53.948Z,99638.22
2022-10-01T09:30:00.751Z,99624.33
2022-10-01T09:35:07.751Z,99623.52
2022-10-01T09:40:10.613Z,99617.45
2022-10-01T09:45:15.051Z,99616.28
2022-10-01T09:50:20.224Z,99615.33
2022-10-01T09:55:28.181Z,99610.17
2022-10-01T10:00:30.687Z,99599.55
2022-10-01T10:05:36.025Z,99588.52
2022-10-01T10:10:39.625Z,99579.47
2022-10-01T10:15:49.515Z,99569.97
2022-10-01T10:20:53.848Z,99557.48
2022-10-01T10:26:07.369Z,99545.02
2022-10-01T10:31:12.432Z,99548.39
2022-10-01T10:36:15.988Z,99543.27
2022-10-01T10:41:21.188Z,99542.32
2022-10-01T10:46:29.303Z,99535.17
2022-10-01T10:51:34.945Z,99526.09
2022-10-01T10:56:38.346Z,99516.36
2022-10-01T11:01:42.670Z,99514.27
2022-10-01T11:06:53.621Z,99513.17
2022-10-01T11:12:08.045Z,99502.51
2022-10-01T11:17:20.202Z,99499.57
2022-10-01T11:22:25.537Z,99490.91
2022-10-01T11:27:29.722Z,99486.38
2022-10-01T11:32:35.070Z,99481.45
2022-10-01T11:37:45.123Z,99476.23
2022-10-01T11:42:50.912Z,99466.02
2022-10-01T11:47:58.296Z,99457.09
2022-10-01T11:53:07.905Z,99450.20
2022-10-01T11:58:16.174Z,99449.05
2022-10-01T12:03:23.346Z,99443.41
2022-10-01T12:08:31.766Z,99439.05
2022-10-01T12:13:37.719Z,99432.23
2022-10-01T12:18:40.270Z,99419.84
2022-10-01T12:23:53.023Z,99427.56
2022-10-01T12:29:01.335Z,99424.21
2022-10-01T12:34:03.752Z,99419.49
2022-10-01T12:39:14.628Z,99419.08
2022-10-01T12:44:23.912Z,99410.33
2022-10-01T12:49:46.576Z,99401.92
2022-10-01T12:54:51.932Z,99393.63
2022-10-01T12:59:59.171Z,99387.21
2022-10-01T13:05:12.595Z,99382.02
2022-10-01T13:10:18.249Z,99369.02
2022-10-01T13:15:22.477Z,99369.65
2022-10-01T13:20:27.826Z,99369.54
2022-10-01T13:25:30.196Z,99359.45
2022-10-01T13:30:41.328Z,99359.65
2022-10-01T13:35:52.462Z,99357.71
2022-10-01T13:40:58.325Z,99343.40
2022-10-01T13:46:04.120Z,99336.23
2022-10-01T13:51:09.119Z,99329.09
2022-10-01T13:56:14.311Z,99323.45
2022-10-01T14:01:21.374Z,99320.26
2022-10-01T14:06:28.194Z,99307.96
2022-10-01T14:11:35.613Z,99303.15
2022-10-01T14:16:40.916Z,99301.27
2022-10-01T14:21:51.890Z,99299.41
2022-10-01T14:26:54.261Z,99298.52
2022-10-01T14:31:58.650Z,99285.06
2022-10-01T14:37:01.286Z,99275.27
2022-10-01T14:42:14.254Z,99268.09
2022-10-01T14:48:09.859Z,99254.46
2022-10-01T14:53:16.456Z,99251.86
2022-10-01T14:58:21.660Z,99248.33
2022-10-01T15:03:24.131Z,99238.46
2022-10-01T15:08:29.521Z,99233.34
2022-10-01T15:13:35.286Z,99223.80
2022-10-01T15:18:38.566Z,99221.27
2022-10-01T15:23:41.392Z,99222.48
2022-10-01T15:28:44.407Z,99217.00
2022-10-01T15:33:47.052Z,99203.17
2022-10-01T15:38:50.797Z,99208.36
2022-10-01T15:43:53.349Z,99204.00
2022-10-01T15:48:58.663Z,99190.48
2022-10-01T15:54:04.656Z,99190.21
2022-10-01T15:59:10.008Z,99187.11
2022-10-01T16:04:14.233Z,99184.65
2022-10-01T16:09:22.165Z,99182.23
2022-10-01T16:14:27.560Z,99175.39
2022-10-01T16:19:30.410Z,99168.92
2022-10-01T16:24:41.049Z,99162.96
2022-10-01T16:29:49.376Z,99163.80
2022-10-01T16:34:52.271Z,99155.36
2022-10-01T16:39:55.399Z,99154.14
2022-10-01T16:44:57.806Z,99143.82
2022-10-01T16:50:00.246Z,99148.52
2022-10-01T16:55:02.960Z,99147.70
2022-10-01T17:00:05.666Z,99140.55
2022-10-01T17:05:15.370Z,99140.23
2022-10-01T17:10:18.999Z,99137.69
2022-10-01T17:15:23.220Z,99132.38
2022-10-01T17:20:28.490Z,99133.48
2022-10-01T17:25:34.199Z,99128.68
2022-10-01T17:30:40.531Z,99120.63
2022-10-01T17:35:44.051Z,99116.27
2022-10-01T17:40:46.808Z,99116.55
2022-10-01T17:45:55.252Z,99116.50
2022-10-01T17:50:59.170Z,99110.96
2022-10-01T17:56:04.580Z,99108.43
2022-10-01T18:01:12.120Z,99103.98
2022-10-01T18:06:15.975Z,99103.20
2022-10-01T18:11:19.011Z,99105.21
2022-10-01T18:16:22.031Z,99104.02
2022-10-01T18:21:24.645Z,99099.83
2022-10-01T18:26:27.349Z,99090.77
2022-10-01T18:31:44.183Z,99090.50
2022-10-01T18:36:48.623Z,99089.98
2022-10-01T18:41:51.109Z,99080.13
2022-10-01T18:46:58.670Z,99078.77
2022-10-01T18:52:08.754Z,99069.83
2022-10-01T18:57:14.313Z,99069.16
2022-10-01T19:02:18.814Z,99069.36
2022-10-01T19:07:22.705Z,99066.44
2022-10-01T19:12:28.076Z,99055.87
2022-10-01T19:17:30.637Z,99051.98
2022-10-01T19:22:43.987Z,99045.05
2022-10-01T19:27:49.406Z,99042.68
2022-10-01T19:32:55.006Z,99038.44
2022-10-01T19:38:02.966Z,99038.65
2022-10-01T19:43:16.002Z,99036.90
2022-10-01T19:48:38.626Z,99028.73
2022-10-01T19:53:44.095Z,99023.50
2022-10-01T19:58:47.025Z,99021.98
2022-10-01T20:03:53.128Z,99019.02
2022-10-01T20:08:59.355Z,99023.56
2022-10-01T20:14:10.085Z,99022.74
2022-10-01T20:19:20.241Z,99034.34
2022-10-01T20:24:28.756Z,99036.43
2022-10-01T20:29:34.685Z,99036.08
2022-10-01T20:34:43.913Z,99035.97
2022-10-01T20:39:51.529Z,99030.75
2022-10-01T20:44:53.986Z,99031.79
2022-10-01T20:50:05.777Z,99032.33
2022-10-01T20:55:15.703Z,99031.23
2022-10-01T21:00:19.480Z,99029.86
2022-10-01T21:05:25.487Z,99029.39
2022-10-01T21:10:36.246Z,99025.73
2022-10-01T21:15:41.727Z,99023.54
2022-10-01T21:20:47.611Z,99030.65
2022-10-01T21:26:24.546Z,99025.73
2022-10-01T21:31:29.933Z,99028.13
2022-10-01T21:36:34.656Z,99035.38
2022-10-01T21:41:38.264Z,99037.33
2022-10-01T21:47:01.099Z,99039.41
2022-10-01T21:52:11.064Z,99039.12
2022-10-01T21:57:22.253Z,99041.30
2022-10-01T22:02:26.273Z,99041.88
2022-10-01T22:07:31.656Z,99038.42
2022-10-01T22:12:36.810Z,99040.56
2022-10-01T22:17:39.515Z,99042.42
2022-10-01T22:22:42.738Z,99046.55
2022-10-01T22:27:48.142Z,99039.50
2022-10-01T22:32:54.926Z,99041.19
2022-10-01T22:38:02.030Z,99040.53
2022-10-01T22:43:08.206Z,99038.48
2022-10-01T22:48:19.363Z,99034.92
2022-10-01T22:53:24.732Z,99036.63
2022-10-01T22:58:27.081Z,99039.33
2022-10-01T23:03:37.198Z,99033.09
2022-10-01T23:08:46.810Z,99034.79
2022-10-01T23:13:49.145Z,99030.33
2022-10-01T23:18:54.788Z,99036.09
2022-10-01T23:24:07.771Z,99038.10
2022-10-01T23:29:13.102Z,99035.70
2022-10-01T23:34:23.995Z,99037.15
2022-10-01T23:39:36.981Z,99038.72
2022-10-01T23:44:47.807Z,99041.65
2022-10-01T23:49:53.034Z,99041.35
2022-10-01T23:55:17.978Z,99047.54
